sensor_id;sensor_type;location;lat;lon;timestamp;P1;durP1;ratioP1;P2;durP2;ratioP2
15331;SDS011;7766;51.534;6.722;2023-08-01T00:00:18;1.10;;;0.77;;
15331;SDS011;7766;51.534;6.722;2023-08-01T00:01:19;0.60;;;0.60;;
15331;SDS011;7766;51.534;6.722;2023-08-01T00:02:20;0.73;;;0.70;;
15331;SDS011;7766;51.534;6.722;2023-08-01T00:03:21;0.93;;;0.67;;
15331;SDS011;7766;51.534;6.722;2023-08-01T00:04:22;1.00;;;0.87;;
15331;SDS011;7766;51.534;6.722;2023-08-01T00:05:23;0.50;;;0.40;;
15331;SDS011;7766;51.534;6.722;2023-08-01T00:06:24;0.90;;;0.67;;
15331;SDS011;7766;51.534;6.722;2023-08-01T00:07:26;1.53;;;0.90;;
15331;SDS011;7766;51.534;6.722;2023-08-01T00:08:28;1.43;;;1.17;;
15331;SDS011;7766;51.534;6.722;2023-08-01T00:09:29;1.47;;;0.80;;
15331;SDS011;7766;51.534;6.722;2023-08-01T00:10:30;2.63;;;0.70;;
15331;SDS011;7766;51.534;6.722;2023-08-01T00:11:31;0.70;;;0.60;;
15331;SDS011;7766;51.534;6.722;2023-08-01T00:12:32;1.07;;;0.70;;
15331;SDS011;7766;51.534;6.722;2023-08-01T00:13:33;0.67;;;0.67;;
15331;SDS011;7766;51.534;6.722;2023-08-01T00:14:35;1.07;;;0.77;;
15331;SDS011;7766;51.534;6.722;2023-08-01T00:15:36;0.87;;;0.70;;
15331;SDS011;7766;51.534;6.722;2023-08-01T00:16:37;0.90;;;0.70;;
15331;SDS011;7766;51.534;6.722;2023-08-01T00:17:37;1.83;;;0.80;;
15331;SDS011;7766;51.534;6.722;2023-08-01T00:18:39;1.03;;;0.87;;
15331;SDS011;7766;51.534;6.722;2023-08-01T00:19:40;0.60;;;0.60;;
15331;SDS011;7766;51.534;6.722;2023-08-01T00:20:40;1.13;;;0.80;;
15331;SDS011;7766;51.534;6.722;2023-08-01T00:21:41;0.80;;;0.80;;
15331;SDS011;7766;51.534;6.722;2023-08-01T00:22:42;0.80;;;0.80;;
15331;SDS011;7766;51.534;6.722;2023-08-01T00:23:44;3.37;;;0.80;;
15331;SDS011;7766;51.534;6.722;2023-08-01T00:24:45;1.00;;;0.80;;
15331;SDS011;7766;51.534;6.722;2023-08-01T00:25:47;0.87;;;0.87;;
15331;SDS011;7766;51.534;6.722;2023-08-01T00:26:51;0.90;;;0.63;;
15331;SDS011;7766;51.534;6.722;2023-08-01T00:27:55;0.80;;;0.80;;
15331;SDS011;7766;51.534;6.722;2023-08-01T00:28:56;0.70;;;0.63;;
15331;SDS011;7766;51.534;6.722;2023-08-01T00:29:57;2.60;;;0.90;;
15331;SDS011;7766;51.534;6.722;2023-08-01T00:31:02;0.80;;;0.67;;
15331;SDS011;7766;51.534;6.722;2023-08-01T00:32:04;0.70;;;0.70;;
15331;SDS011;7766;51.534;6.722;2023-08-01T00:33:05;0.97;;;0.90;;
15331;SDS011;7766;51.534;6.722;2023-08-01T00:34:06;1.90;;;0.90;;
15331;SDS011;7766;51.534;6.722;2023-08-01T00:35:07;0.97;;;0.87;;
15331;SDS011;7766;51.534;6.722;2023-08-01T00:36:08;1.00;;;0.80;;
15331;SDS011;7766;51.534;6.722;2023-08-01T00:37:11;2.00;;;0.80;;
15331;SDS011;7766;51.534;6.722;2023-08-01T00:38:12;0.67;;;0.67;;
15331;SDS011;7766;51.534;6.722;2023-08-01T00:39:13;1.37;;;1.00;;
15331;SDS011;7766;51.534;6.722;2023-08-01T00:40:14;0.90;;;0.87;;
15331;SDS011;7766;51.534;6.722;2023-08-01T00:41:17;1.33;;;1.00;;
15331;SDS011;7766;51.534;6.722;2023-08-01T00:42:18;1.27;;;1.10;;
15331;SDS011;7766;51.534;6.722;2023-08-01T00:43:19;2.27;;;1.03;;
15331;SDS011;7766;51.534;6.722;2023-08-01T00:44:20;0.83;;;0.83;;
15331;SDS011;7766;51.534;6.722;2023-08-01T00:45:21;2.00;;;1.10;;
15331;SDS011;7766;51.534;6.722;2023-08-01T00:46:24;1.20;;;1.10;;
15331;SDS011;7766;51.534;6.722;2023-08-01T00:47:25;2.70;;;1.37;;
15331;SDS011;7766;51.534;6.722;2023-08-01T00:48:27;1.30;;;1.20;;
15331;SDS011;7766;51.534;6.722;2023-08-01T00:49:28;1.47;;;1.20;;
15331;SDS011;7766;51.534;6.722;2023-08-01T00:50:29;2.80;;;1.27;;
15331;SDS011;7766;51.534;6.722;2023-08-01T00:51:31;1.30;;;1.20;;
15331;SDS011;7766;51.534;6.722;2023-08-01T00:52:32;1.40;;;1.20;;
15331;SDS011;7766;51.534;6.722;2023-08-01T00:53:34;1.77;;;1.30;;
15331;SDS011;7766;51.534;6.722;2023-08-01T00:54:35;1.70;;;1.33;;
15331;SDS011;7766;51.534;6.722;2023-08-01T00:55:36;1.40;;;1.30;;
15331;SDS011;7766;51.534;6.722;2023-08-01T00:56:38;1.60;;;1.40;;
15331;SDS011;7766;51.534;6.722;2023-08-01T00:57:39;1.47;;;1.20;;
15331;SDS011;7766;51.534;6.722;2023-08-01T00:58:41;1.73;;;1.20;;
15331;SDS011;7766;51.534;6.722;2023-08-01T00:59:42;2.87;;;1.40;;
15331;SDS011;7766;51.534;6.722;2023-08-01T01:00:43;1.30;;;1.20;;
15331;SDS011;7766;51.534;6.722;2023-08-01T01:01:44;1.63;;;1.30;;
15331;SDS011;7766;51.534;6.722;2023-08-01T01:02:45;1.33;;;1.20;;
15331;SDS011;7766;51.534;6.722;2023-08-01T01:03:46;1.93;;;1.50;;
15331;SDS011;7766;51.534;6.722;2023-08-01T01:04:48;3.03;;;1.37;;
15331;SDS011;7766;51.534;6.722;2023-08-01T01:05:52;1.73;;;1.10;;
15331;SDS011;7766;51.534;6.722;2023-08-01T01:07:17;2.70;;;1.20;;
15331;SDS011;7766;51.534;6.722;2023-08-01T01:08:19;1.30;;;1.10;;
15331;SDS011;7766;51.534;6.722;2023-08-01T01:09:20;1.97;;;1.30;;
15331;SDS011;7766;51.534;6.722;2023-08-01T01:10:21;1.30;;;1.20;;
15331;SDS011;7766;51.534;6.722;2023-08-01T01:11:22;1.27;;;1.00;;
15331;SDS011;7766;51.534;6.722;2023-08-01T01:12:23;1.37;;;1.20;;
15331;SDS011;7766;51.534;6.722;2023-08-01T01:13:24;1.50;;;1.03;;
15331;SDS011;7766;51.534;6.722;2023-08-01T01:14:26;1.67;;;1.23;;
15331;SDS011;7766;51.534;6.722;2023-08-01T01:15:27;2.53;;;1.23;;
15331;SDS011;7766;51.534;6.722;2023-08-01T01:16:28;2.63;;;1.30;;
15331;SDS011;7766;51.534;6.722;2023-08-01T01:17:29;2.43;;;1.30;;
15331;SDS011;7766;51.534;6.722;2023-08-01T01:18:30;3.33;;;1.50;;
15331;SDS011;7766;51.534;6.722;2023-08-01T01:19:32;2.23;;;1.20;;
15331;SDS011;7766;51.534;6.722;2023-08-01T01:20:36;2.23;;;1.37;;
15331;SDS011;7766;51.534;6.722;2023-08-01T01:21:38;2.33;;;1.30;;
15331;SDS011;7766;51.534;6.722;2023-08-01T01:22:40;1.83;;;1.30;;
15331;SDS011;7766;51.534;6.722;2023-08-01T01:23:43;2.07;;;1.30;;
15331;SDS011;7766;51.534;6.722;2023-08-01T01:24:45;1.33;;;1.23;;
15331;SDS011;7766;51.534;6.722;2023-08-01T01:25:48;1.53;;;1.43;;
15331;SDS011;7766;51.534;6.722;2023-08-01T01:26:51;1.80;;;1.60;;
15331;SDS011;7766;51.534;6.722;2023-08-01T01:27:54;1.30;;;1.20;;
15331;SDS011;7766;51.534;6.722;2023-08-01T01:28:56;2.60;;;1.47;;
15331;SDS011;7766;51.534;6.722;2023-08-01T01:29:57;2.60;;;1.17;;
15331;SDS011;7766;51.534;6.722;2023-08-01T01:31:00;2.37;;;1.37;;
15331;SDS011;7766;51.534;6.722;2023-08-01T01:32:02;3.07;;;1.63;;
15331;SDS011;7766;51.534;6.722;2023-08-01T01:33:05;1.57;;;1.10;;
15331;SDS011;7766;51.534;6.722;2023-08-01T01:34:07;1.73;;;1.53;;
15331;SDS011;7766;51.534;6.722;2023-08-01T01:35:08;1.40;;;1.30;;
15331;SDS011;7766;51.534;6.722;2023-08-01T01:36:10;1.60;;;1.50;;
15331;SDS011;7766;51.534;6.722;2023-08-01T01:37:11;1.47;;;1.37;;
15331;SDS011;7766;51.534;6.722;2023-08-01T01:38:12;1.33;;;1.23;;
15331;SDS011;7766;51.534;6.722;2023-08-01T01:39:13;1.90;;;1.57;;
15331;SDS011;7766;51.534;6.722;2023-08-01T01:40:14;3.70;;;1.57;;
15331;SDS011;7766;51.534;6.722;2023-08-01T01:41:15;2.37;;;1.30;;
15331;SDS011;7766;51.534;6.722;2023-08-01T01:42:16;2.57;;;1.70;;
15331;SDS011;7766;51.534;6.722;2023-08-01T01:43:17;2.27;;;1.50;;
15331;SDS011;7766;51.534;6.722;2023-08-01T01:44:18;3.10;;;1.90;;
15331;SDS011;7766;51.534;6.722;2023-08-01T01:45:19;1.87;;;1.50;;
15331;SDS011;7766;51.534;6.722;2023-08-01T01:46:20;1.60;;;1.50;;
15331;SDS011;7766;51.534;6.722;2023-08-01T01:47:21;2.03;;;1.60;;
15331;SDS011;7766;51.534;6.722;2023-08-01T01:48:22;2.97;;;1.93;;
15331;SDS011;7766;51.534;6.722;2023-08-01T01:49:23;1.90;;;1.80;;
15331;SDS011;7766;51.534;6.722;2023-08-01T01:50:26;4.03;;;2.20;;
15331;SDS011;7766;51.534;6.722;2023-08-01T01:51:27;2.50;;;1.67;;
15331;SDS011;7766;51.534;6.722;2023-08-01T01:52:31;2.13;;;1.90;;
15331;SDS011;7766;51.534;6.722;2023-08-01T01:53:32;2.10;;;1.87;;
15331;SDS011;7766;51.534;6.722;2023-08-01T01:54:34;2.20;;;1.60;;
15331;SDS011;7766;51.534;6.722;2023-08-01T01:55:35;2.30;;;2.00;;
15331;SDS011;7766;51.534;6.722;2023-08-01T01:56:36;3.37;;;2.17;;
15331;SDS011;7766;51.534;6.722;2023-08-01T01:57:37;2.13;;;1.93;;
15331;SDS011;7766;51.534;6.722;2023-08-01T01:58:38;3.90;;;2.30;;
15331;SDS011;7766;51.534;6.722;2023-08-01T01:59:39;4.37;;;2.30;;
15331;SDS011;7766;51.534;6.722;2023-08-01T02:00:40;2.10;;;1.80;;
15331;SDS011;7766;51.534;6.722;2023-08-01T02:01:41;2.63;;;2.10;;
15331;SDS011;7766;51.534;6.722;2023-08-01T02:02:42;2.27;;;2.07;;
15331;SDS011;7766;51.534;6.722;2023-08-01T02:03:43;2.90;;;2.17;;
15331;SDS011;7766;51.534;6.722;2023-08-01T02:04:45;2.83;;;2.00;;
15331;SDS011;7766;51.534;6.722;2023-08-01T02:05:47;2.63;;;2.43;;
15331;SDS011;7766;51.534;6.722;2023-08-01T02:06:48;4.60;;;2.73;;
15331;SDS011;7766;51.534;6.722;2023-08-01T02:07:49;3.00;;;2.70;;
15331;SDS011;7766;51.534;6.722;2023-08-01T02:08:50;2.90;;;2.60;;
15331;SDS011;7766;51.534;6.722;2023-08-01T02:09:51;4.40;;;2.67;;
15331;SDS011;7766;51.534;6.722;2023-08-01T02:10:52;3.83;;;3.43;;
15331;SDS011;7766;51.534;6.722;2023-08-01T02:11:55;4.40;;;3.07;;
15331;SDS011;7766;51.534;6.722;2023-08-01T02:12:56;5.27;;;3.10;;
15331;SDS011;7766;51.534;6.722;2023-08-01T02:13:57;3.10;;;2.67;;
15331;SDS011;7766;51.534;6.722;2023-08-01T02:14:58;5.57;;;3.33;;
15331;SDS011;7766;51.534;6.722;2023-08-01T02:15:59;3.90;;;3.13;;
15331;SDS011;7766;51.534;6.722;2023-08-01T02:17:00;3.33;;;2.97;;
15331;SDS011;7766;51.534;6.722;2023-08-01T02:18:02;4.10;;;3.37;;
15331;SDS011;7766;51.534;6.722;2023-08-01T02:19:03;5.70;;;3.73;;
15331;SDS011;7766;51.534;6.722;2023-08-01T02:20:04;6.87;;;3.70;;
15331;SDS011;7766;51.534;6.722;2023-08-01T02:21:05;6.97;;;4.40;;
15331;SDS011;7766;51.534;6.722;2023-08-01T02:22:06;5.47;;;4.37;;
15331;SDS011;7766;51.534;6.722;2023-08-01T02:23:07;4.70;;;3.60;;
15331;SDS011;7766;51.534;6.722;2023-08-01T02:24:08;6.47;;;4.47;;
15331;SDS011;7766;51.534;6.722;2023-08-01T02:25:09;5.73;;;4.73;;
15331;SDS011;7766;51.534;6.722;2023-08-01T02:26:11;6.17;;;4.77;;
15331;SDS011;7766;51.534;6.722;2023-08-01T02:27:12;5.30;;;4.77;;
15331;SDS011;7766;51.534;6.722;2023-08-01T02:28:13;6.90;;;4.70;;
15331;SDS011;7766;51.534;6.722;2023-08-01T02:29:14;5.23;;;4.50;;
15331;SDS011;7766;51.534;6.722;2023-08-01T02:30:15;6.03;;;5.43;;
15331;SDS011;7766;51.534;6.722;2023-08-01T02:31:16;7.60;;;6.50;;
15331;SDS011;7766;51.534;6.722;2023-08-01T02:32:17;6.90;;;6.30;;
15331;SDS011;7766;51.534;6.722;2023-08-01T02:33:19;8.13;;;6.87;;
15331;SDS011;7766;51.534;6.722;2023-08-01T02:34:20;8.00;;;6.50;;
15331;SDS011;7766;51.534;6.722;2023-08-01T02:35:21;8.50;;;6.60;;
15331;SDS011;7766;51.534;6.722;2023-08-01T02:36:22;10.37;;;6.93;;
15331;SDS011;7766;51.534;6.722;2023-08-01T02:37:23;8.00;;;6.47;;
15331;SDS011;7766;51.534;6.722;2023-08-01T02:38:24;12.27;;;8.00;;
15331;SDS011;7766;51.534;6.722;2023-08-01T02:39:25;10.53;;;7.20;;
15331;SDS011;7766;51.534;6.722;2023-08-01T02:40:26;9.20;;;7.30;;
15331;SDS011;7766;51.534;6.722;2023-08-01T02:41:27;9.33;;;8.07;;
15331;SDS011;7766;51.534;6.722;2023-08-01T02:42:28;10.33;;;7.90;;
15331;SDS011;7766;51.534;6.722;2023-08-01T02:43:29;9.40;;;7.83;;
15331;SDS011;7766;51.534;6.722;2023-08-01T02:44:30;9.77;;;7.33;;
15331;SDS011;7766;51.534;6.722;2023-08-01T02:45:31;10.70;;;8.10;;
15331;SDS011;7766;51.534;6.722;2023-08-01T02:46:32;12.00;;;7.90;;
15331;SDS011;7766;51.534;6.722;2023-08-01T02:47:33;8.83;;;7.87;;
15331;SDS011;7766;51.534;6.722;2023-08-01T02:48:34;11.23;;;8.33;;
15331;SDS011;7766;51.534;6.722;2023-08-01T02:49:35;11.33;;;8.10;;
15331;SDS011;7766;51.534;6.722;2023-08-01T02:50:36;11.53;;;7.43;;
15331;SDS011;7766;51.534;6.722;2023-08-01T02:51:37;9.73;;;8.13;;
15331;SDS011;7766;51.534;6.722;2023-08-01T02:52:38;12.37;;;8.40;;
15331;SDS011;7766;51.534;6.722;2023-08-01T02:53:39;10.77;;;8.90;;
15331;SDS011;7766;51.534;6.722;2023-08-01T02:54:41;11.03;;;9.00;;
15331;SDS011;7766;51.534;6.722;2023-08-01T02:55:42;12.40;;;9.10;;
15331;SDS011;7766;51.534;6.722;2023-08-01T02:56:46;10.93;;;9.07;;
15331;SDS011;7766;51.534;6.722;2023-08-01T02:57:47;10.60;;;9.07;;
15331;SDS011;7766;51.534;6.722;2023-08-01T02:58:48;10.17;;;9.17;;
15331;SDS011;7766;51.534;6.722;2023-08-01T02:59:51;12.37;;;9.37;;
15331;SDS011;7766;51.534;6.722;2023-08-01T03:00:53;11.53;;;9.63;;
15331;SDS011;7766;51.534;6.722;2023-08-01T03:01:54;12.70;;;8.97;;
15331;SDS011;7766;51.534;6.722;2023-08-01T03:02:55;13.37;;;9.63;;
15331;SDS011;7766;51.534;6.722;2023-08-01T03:03:57;12.67;;;8.80;;
15331;SDS011;7766;51.534;6.722;2023-08-01T03:04:57;12.17;;;9.10;;
15331;SDS011;7766;51.534;6.722;2023-08-01T03:05:59;11.00;;;8.60;;
15331;SDS011;7766;51.534;6.722;2023-08-01T03:07:00;13.07;;;10.13;;
15331;SDS011;7766;51.534;6.722;2023-08-01T03:08:01;12.70;;;9.30;;
15331;SDS011;7766;51.534;6.722;2023-08-01T03:09:03;12.30;;;9.93;;
15331;SDS011;7766;51.534;6.722;2023-08-01T03:10:08;12.37;;;9.83;;
15331;SDS011;7766;51.534;6.722;2023-08-01T03:11:11;14.60;;;10.33;;
15331;SDS011;7766;51.534;6.722;2023-08-01T03:12:12;13.20;;;9.97;;
15331;SDS011;7766;51.534;6.722;2023-08-01T03:13:13;13.60;;;10.40;;
15331;SDS011;7766;51.534;6.722;2023-08-01T03:14:14;12.97;;;9.50;;
15331;SDS011;7766;51.534;6.722;2023-08-01T03:15:16;13.23;;;10.83;;
15331;SDS011;7766;51.534;6.722;2023-08-01T03:16:17;12.43;;;9.83;;
15331;SDS011;7766;51.534;6.722;2023-08-01T03:17:18;14.90;;;10.13;;
15331;SDS011;7766;51.534;6.722;2023-08-01T03:18:19;13.00;;;10.63;;
15331;SDS011;7766;51.534;6.722;2023-08-01T03:19:20;15.50;;;10.73;;
15331;SDS011;7766;51.534;6.722;2023-08-01T03:20:21;19.10;;;10.53;;
15331;SDS011;7766;51.534;6.722;2023-08-01T03:21:22;15.73;;;10.37;;
15331;SDS011;7766;51.534;6.722;2023-08-01T03:22:23;14.17;;;10.87;;
15331;SDS011;7766;51.534;6.722;2023-08-01T03:23:24;13.80;;;10.40;;
15331;SDS011;7766;51.534;6.722;2023-08-01T03:24:26;14.60;;;10.57;;
15331;SDS011;7766;51.534;6.722;2023-08-01T03:25:27;15.10;;;10.10;;
15331;SDS011;7766;51.534;6.722;2023-08-01T03:26:28;16.27;;;10.53;;
15331;SDS011;7766;51.534;6.722;2023-08-01T03:27:29;18.30;;;11.27;;
15331;SDS011;7766;51.534;6.722;2023-08-01T03:28:30;13.57;;;10.80;;
15331;SDS011;7766;51.534;6.722;2023-08-01T03:29:31;13.43;;;10.47;;
15331;SDS011;7766;51.534;6.722;2023-08-01T03:30:32;16.23;;;10.70;;
15331;SDS011;7766;51.534;6.722;2023-08-01T03:31:33;15.50;;;10.20;;
15331;SDS011;7766;51.534;6.722;2023-08-01T03:32:35;17.30;;;11.47;;
15331;SDS011;7766;51.534;6.722;2023-08-01T03:33:37;17.27;;;11.17;;
15331;SDS011;7766;51.534;6.722;2023-08-01T03:34:38;15.97;;;10.77;;
15331;SDS011;7766;51.534;6.722;2023-08-01T03:35:41;18.87;;;10.43;;
15331;SDS011;7766;51.534;6.722;2023-08-01T03:36:42;16.57;;;11.03;;
15331;SDS011;7766;51.534;6.722;2023-08-01T03:37:43;14.47;;;10.70;;
15331;SDS011;7766;51.534;6.722;2023-08-01T03:38:44;16.97;;;11.07;;
15331;SDS011;7766;51.534;6.722;2023-08-01T03:39:45;16.60;;;10.50;;
15331;SDS011;7766;51.534;6.722;2023-08-01T03:40:46;12.57;;;10.20;;
15331;SDS011;7766;51.534;6.722;2023-08-01T03:41:47;13.93;;;10.10;;
15331;SDS011;7766;51.534;6.722;2023-08-01T03:42:48;19.93;;;10.97;;
15331;SDS011;7766;51.534;6.722;2023-08-01T03:43:49;13.70;;;10.37;;
15331;SDS011;7766;51.534;6.722;2023-08-01T03:44:50;15.30;;;11.33;;
15331;SDS011;7766;51.534;6.722;2023-08-01T03:45:51;13.50;;;10.27;;
15331;SDS011;7766;51.534;6.722;2023-08-01T03:46:52;15.00;;;10.30;;
15331;SDS011;7766;51.534;6.722;2023-08-01T03:47:53;16.83;;;11.17;;
15331;SDS011;7766;51.534;6.722;2023-08-01T03:48:54;15.87;;;10.23;;
15331;SDS011;7766;51.534;6.722;2023-08-01T03:49:55;18.40;;;9.80;;
15331;SDS011;7766;51.534;6.722;2023-08-01T03:50:55;16.17;;;9.67;;
15331;SDS011;7766;51.534;6.722;2023-08-01T03:51:57;18.10;;;11.10;;
15331;SDS011;7766;51.534;6.722;2023-08-01T03:52:57;14.13;;;10.03;;
15331;SDS011;7766;51.534;6.722;2023-08-01T03:53:58;15.83;;;10.40;;
15331;SDS011;7766;51.534;6.722;2023-08-01T03:54:59;13.70;;;9.47;;
15331;SDS011;7766;51.534;6.722;2023-08-01T03:56:01;14.60;;;9.70;;
15331;SDS011;7766;51.534;6.722;2023-08-01T03:57:02;13.93;;;9.53;;
15331;SDS011;7766;51.534;6.722;2023-08-01T03:58:03;15.37;;;9.40;;
15331;SDS011;7766;51.534;6.722;2023-08-01T03:59:04;14.77;;;9.40;;
15331;SDS011;7766;51.534;6.722;2023-08-01T04:00:06;16.13;;;8.77;;
15331;SDS011;7766;51.534;6.722;2023-08-01T04:01:13;19.00;;;10.97;;
15331;SDS011;7766;51.534;6.722;2023-08-01T04:02:14;19.47;;;10.77;;
15331;SDS011;7766;51.534;6.722;2023-08-01T04:03:15;15.13;;;9.57;;
15331;SDS011;7766;51.534;6.722;2023-08-01T04:04:16;15.97;;;8.87;;
15331;SDS011;7766;51.534;6.722;2023-08-01T04:05:17;15.03;;;10.60;;
15331;SDS011;7766;51.534;6.722;2023-08-01T04:06:18;12.17;;;9.27;;
15331;SDS011;7766;51.534;6.722;2023-08-01T04:07:19;17.60;;;11.53;;
15331;SDS011;7766;51.534;6.722;2023-08-01T04:08:20;15.40;;;10.50;;
15331;SDS011;7766;51.534;6.722;2023-08-01T04:09:21;13.60;;;9.33;;
15331;SDS011;7766;51.534;6.722;2023-08-01T04:10:22;14.40;;;9.90;;
15331;SDS011;7766;51.534;6.722;2023-08-01T04:11:23;17.10;;;10.20;;
15331;SDS011;7766;51.534;6.722;2023-08-01T04:12:24;15.97;;;9.20;;
15331;SDS011;7766;51.534;6.722;2023-08-01T04:13:25;15.23;;;9.50;;
15331;SDS011;7766;51.534;6.722;2023-08-01T04:14:26;18.87;;;10.07;;
15331;SDS011;7766;51.534;6.722;2023-08-01T04:15:28;16.60;;;9.83;;
15331;SDS011;7766;51.534;6.722;2023-08-01T04:16:30;13.33;;;9.77;;
15331;SDS011;7766;51.534;6.722;2023-08-01T04:17:31;16.20;;;10.27;;
15331;SDS011;7766;51.534;6.722;2023-08-01T04:18:32;14.77;;;9.70;;
15331;SDS011;7766;51.534;6.722;2023-08-01T04:19:33;13.47;;;9.63;;
15331;SDS011;7766;51.534;6.722;2023-08-01T04:20:34;12.50;;;9.07;;
15331;SDS011;7766;51.534;6.722;2023-08-01T04:21:35;13.97;;;9.77;;
15331;SDS011;7766;51.534;6.722;2023-08-01T04:22:36;11.60;;;9.60;;
15331;SDS011;7766;51.534;6.722;2023-08-01T04:23:37;15.00;;;9.83;;
15331;SDS011;7766;51.534;6.722;2023-08-01T04:24:37;17.27;;;9.70;;
15331;SDS011;7766;51.534;6.722;2023-08-01T04:25:40;12.77;;;9.03;;
15331;SDS011;7766;51.534;6.722;2023-08-01T04:26:41;14.80;;;10.27;;
15331;SDS011;7766;51.534;6.722;2023-08-01T04:27:42;17.00;;;9.40;;
15331;SDS011;7766;51.534;6.722;2023-08-01T04:28:43;17.20;;;10.47;;
15331;SDS011;7766;51.534;6.722;2023-08-01T04:29:45;17.97;;;10.80;;
15331;SDS011;7766;51.534;6.722;2023-08-01T04:30:50;17.20;;;9.97;;
15331;SDS011;7766;51.534;6.722;2023-08-01T04:31:51;15.53;;;9.57;;
15331;SDS011;7766;51.534;6.722;2023-08-01T04:32:52;15.13;;;10.23;;
15331;SDS011;7766;51.534;6.722;2023-08-01T04:33:53;16.23;;;10.23;;
15331;SDS011;7766;51.534;6.722;2023-08-01T04:34:55;16.37;;;10.80;;
15331;SDS011;7766;51.534;6.722;2023-08-01T04:35:56;13.23;;;10.00;;
15331;SDS011;7766;51.534;6.722;2023-08-01T04:36:57;15.17;;;10.87;;
15331;SDS011;7766;51.534;6.722;2023-08-01T04:37:58;17.00;;;10.37;;
15331;SDS011;7766;51.534;6.722;2023-08-01T04:38:59;14.33;;;10.57;;
15331;SDS011;7766;51.534;6.722;2023-08-01T04:40:00;15.37;;;10.80;;
15331;SDS011;7766;51.534;6.722;2023-08-01T04:41:01;14.67;;;10.97;;
15331;SDS011;7766;51.534;6.722;2023-08-01T04:42:03;15.70;;;10.70;;
15331;SDS011;7766;51.534;6.722;2023-08-01T04:43:04;16.03;;;10.87;;
15331;SDS011;7766;51.534;6.722;2023-08-01T04:44:05;19.07;;;11.43;;
15331;SDS011;7766;51.534;6.722;2023-08-01T04:45:06;17.73;;;11.17;;
15331;SDS011;7766;51.534;6.722;2023-08-01T04:46:08;17.27;;;10.87;;
15331;SDS011;7766;51.534;6.722;2023-08-01T04:47:09;16.47;;;10.73;;
15331;SDS011;7766;51.534;6.722;2023-08-01T04:48:10;16.30;;;11.57;;
15331;SDS011;7766;51.534;6.722;2023-08-01T04:49:11;17.93;;;11.63;;
15331;SDS011;7766;51.534;6.722;2023-08-01T04:50:12;17.63;;;11.50;;
15331;SDS011;7766;51.534;6.722;2023-08-01T04:51:13;17.73;;;11.20;;
15331;SDS011;7766;51.534;6.722;2023-08-01T04:52:14;19.43;;;11.30;;
15331;SDS011;7766;51.534;6.722;2023-08-01T04:53:15;15.90;;;12.00;;
15331;SDS011;7766;51.534;6.722;2023-08-01T04:54:16;18.33;;;11.73;;
15331;SDS011;7766;51.534;6.722;2023-08-01T04:55:17;23.53;;;11.83;;
15331;SDS011;7766;51.534;6.722;2023-08-01T04:56:18;16.50;;;12.47;;
15331;SDS011;7766;51.534;6.722;2023-08-01T04:57:19;18.17;;;11.77;;
15331;SDS011;7766;51.534;6.722;2023-08-01T04:58:20;15.30;;;11.00;;
15331;SDS011;7766;51.534;6.722;2023-08-01T04:59:21;18.10;;;11.70;;
15331;SDS011;7766;51.534;6.722;2023-08-01T05:00:22;16.53;;;12.00;;
15331;SDS011;7766;51.534;6.722;2023-08-01T05:01:23;17.43;;;11.57;;
15331;SDS011;7766;51.534;6.722;2023-08-01T05:02:24;16.53;;;12.40;;
15331;SDS011;7766;51.534;6.722;2023-08-01T05:03:25;19.00;;;12.13;;
15331;SDS011;7766;51.534;6.722;2023-08-01T05:04:26;17.43;;;12.07;;
15331;SDS011;7766;51.534;6.722;2023-08-01T05:05:27;18.20;;;11.57;;
15331;SDS011;7766;51.534;6.722;2023-08-01T05:06:28;17.30;;;12.23;;
15331;SDS011;7766;51.534;6.722;2023-08-01T05:07:30;19.40;;;12.23;;
15331;SDS011;7766;51.534;6.722;2023-08-01T05:08:31;19.60;;;13.40;;
15331;SDS011;7766;51.534;6.722;2023-08-01T05:09:32;18.47;;;11.80;;
15331;SDS011;7766;51.534;6.722;2023-08-01T05:10:33;21.13;;;12.43;;
15331;SDS011;7766;51.534;6.722;2023-08-01T05:11:34;20.20;;;12.50;;
15331;SDS011;7766;51.534;6.722;2023-08-01T05:12:35;18.63;;;12.43;;
15331;SDS011;7766;51.534;6.722;2023-08-01T05:13:36;15.40;;;12.20;;
15331;SDS011;7766;51.534;6.722;2023-08-01T05:14:37;20.30;;;13.20;;
15331;SDS011;7766;51.534;6.722;2023-08-01T05:15:38;24.07;;;13.83;;
15331;SDS011;7766;51.534;6.722;2023-08-01T05:16:39;17.17;;;12.93;;
15331;SDS011;7766;51.534;6.722;2023-08-01T05:17:40;21.13;;;12.63;;
15331;SDS011;7766;51.534;6.722;2023-08-01T05:18:41;19.37;;;13.53;;
15331;SDS011;7766;51.534;6.722;2023-08-01T05:19:42;19.83;;;13.73;;
15331;SDS011;7766;51.534;6.722;2023-08-01T05:20:43;19.83;;;13.63;;
15331;SDS011;7766;51.534;6.722;2023-08-01T05:21:44;17.43;;;12.60;;
15331;SDS011;7766;51.534;6.722;2023-08-01T05:22:46;23.17;;;13.93;;
15331;SDS011;7766;51.534;6.722;2023-08-01T05:23:46;20.13;;;14.70;;
15331;SDS011;7766;51.534;6.722;2023-08-01T05:24:47;20.37;;;14.23;;
15331;SDS011;7766;51.534;6.722;2023-08-01T05:25:48;19.77;;;13.97;;
15331;SDS011;7766;51.534;6.722;2023-08-01T05:26:50;20.70;;;14.13;;
15331;SDS011;7766;51.534;6.722;2023-08-01T05:27:51;24.03;;;15.27;;
15331;SDS011;7766;51.534;6.722;2023-08-01T05:28:52;18.57;;;14.27;;
15331;SDS011;7766;51.534;6.722;2023-08-01T05:29:53;21.17;;;14.57;;
15331;SDS011;7766;51.534;6.722;2023-08-01T05:30:54;22.33;;;14.37;;
15331;SDS011;7766;51.534;6.722;2023-08-01T05:31:55;19.10;;;15.00;;
15331;SDS011;7766;51.534;6.722;2023-08-01T05:32:56;23.07;;;14.60;;
15331;SDS011;7766;51.534;6.722;2023-08-01T05:33:57;19.27;;;14.20;;
15331;SDS011;7766;51.534;6.722;2023-08-01T05:34:58;19.57;;;15.90;;
15331;SDS011;7766;51.534;6.722;2023-08-01T05:35:59;20.03;;;14.47;;
15331;SDS011;7766;51.534;6.722;2023-08-01T05:37:00;22.50;;;15.13;;
15331;SDS011;7766;51.534;6.722;2023-08-01T05:38:01;24.50;;;15.90;;
15331;SDS011;7766;51.534;6.722;2023-08-01T05:39:02;21.40;;;15.53;;
15331;SDS011;7766;51.534;6.722;2023-08-01T05:40:04;21.40;;;14.73;;
15331;SDS011;7766;51.534;6.722;2023-08-01T05:41:05;24.53;;;15.23;;
15331;SDS011;7766;51.534;6.722;2023-08-01T05:42:06;22.13;;;14.37;;
15331;SDS011;7766;51.534;6.722;2023-08-01T05:43:08;26.27;;;15.17;;
15331;SDS011;7766;51.534;6.722;2023-08-01T05:44:09;20.03;;;14.63;;
15331;SDS011;7766;51.534;6.722;2023-08-01T05:45:10;23.10;;;15.73;;
15331;SDS011;7766;51.534;6.722;2023-08-01T05:46:11;17.97;;;13.13;;
15331;SDS011;7766;51.534;6.722;2023-08-01T05:47:12;21.83;;;14.20;;
15331;SDS011;7766;51.534;6.722;2023-08-01T05:48:13;21.13;;;14.70;;
15331;SDS011;7766;51.534;6.722;2023-08-01T05:49:14;20.80;;;14.23;;
15331;SDS011;7766;51.534;6.722;2023-08-01T05:50:15;21.57;;;14.53;;
15331;SDS011;7766;51.534;6.722;2023-08-01T05:51:16;21.57;;;15.10;;
15331;SDS011;7766;51.534;6.722;2023-08-01T05:52:17;23.10;;;14.20;;
15331;SDS011;7766;51.534;6.722;2023-08-01T05:53:18;22.70;;;14.47;;
15331;SDS011;7766;51.534;6.722;2023-08-01T05:54:19;23.27;;;15.03;;
15331;SDS011;7766;51.534;6.722;2023-08-01T05:55:20;21.57;;;14.27;;
15331;SDS011;7766;51.534;6.722;2023-08-01T05:56:21;20.83;;;14.77;;
15331;SDS011;7766;51.534;6.722;2023-08-01T05:57:22;22.67;;;15.30;;
15331;SDS011;7766;51.534;6.722;2023-08-01T05:58:23;21.60;;;15.57;;
15331;SDS011;7766;51.534;6.722;2023-08-01T05:59:24;21.33;;;15.00;;
15331;SDS011;7766;51.534;6.722;2023-08-01T06:00:25;24.83;;;14.70;;
15331;SDS011;7766;51.534;6.722;2023-08-01T06:01:26;23.03;;;14.83;;
15331;SDS011;7766;51.534;6.722;2023-08-01T06:02:28;26.20;;;15.53;;
15331;SDS011;7766;51.534;6.722;2023-08-01T06:03:29;19.63;;;14.17;;
15331;SDS011;7766;51.534;6.722;2023-08-01T06:04:30;21.73;;;14.07;;
15331;SDS011;7766;51.534;6.722;2023-08-01T06:05:31;24.17;;;14.90;;
15331;SDS011;7766;51.534;6.722;2023-08-01T06:06:32;20.37;;;14.47;;
15331;SDS011;7766;51.534;6.722;2023-08-01T06:07:33;20.10;;;14.57;;
15331;SDS011;7766;51.534;6.722;2023-08-01T06:08:34;20.33;;;13.50;;
15331;SDS011;7766;51.534;6.722;2023-08-01T06:09:35;21.23;;;14.57;;